Time;durP1;ratioP1;P1;durP2;ratioP2;P2;SDS_P1;SDS_P2;PMS_P1;PMS_P2;Temp;Humidity;BMP_temperature;BMP_pressure;BME280_temperature;BME280_humidity;BME280_pressure;Samples;Min_cycle;Max_cycle;Signal;HPM_P1;HPM_P2
2020/12/22 00:01:27;;;;;;;17.98;11.82;;;10.00;99.90;;;;;;4972704;28;20027;-63
2020/12/22 00:03:52;;;;;;;18.02;11.63;;;10.00;99.90;;;;;;4989770;28;20390;-63
2020/12/22 00:06:24;;;;;;;17.83;11.57;;;10.00;99.90;;;;;;4989800;28;20502;-63
2020/12/22 00:08:51;;;;;;;18.30;12.27;;;10.00;99.90;;;;;;4991099;28;20031;-64
2020/12/22 00:11:17;;;;;;;18.77;12.98;;;10.10;99.90;;;;;;4989489;28;20325;-63
2020/12/22 00:13:43;;;;;;;18.40;12.90;;;10.10;99.90;;;;;;4988907;28;20038;-63
2020/12/22 00:16:10;;;;;;;18.60;12.18;;;10.10;99.90;;;;;;4989179;28;20397;-63
2020/12/22 00:18:35;;;;;;;19.35;12.52;;;10.10;99.90;;;;;;4987482;28;20034;-63
2020/12/22 00:21:01;;;;;;;19.85;12.63;;;10.20;99.90;;;;;;4989260;28;20097;-63
2020/12/22 00:23:27;;;;;;;17.48;11.38;;;10.10;99.90;;;;;;4972138;28;20473;-63
2020/12/22 00:25:52;;;;;;;18.42;12.30;;;10.20;99.90;;;;;;4989334;28;20041;-63
2020/12/22 00:28:18;;;;;;;23.17;13.90;;;10.20;99.90;;;;;;4988509;28;20062;-60
2020/12/22 00:30:44;;;;;;;18.35;12.50;;;10.20;99.90;;;;;;4988744;28;20041;-63
2020/12/22 00:33:11;;;;;;;19.27;13.27;;;10.30;99.90;;;;;;4988687;28;20078;-63
2020/12/22 00:35:37;;;;;;;19.48;13.75;;;10.30;99.90;;;;;;4971242;28;20034;-63
2020/12/22 00:38:03;;;;;;;19.88;14.10;;;10.30;99.90;;;;;;4971205;28;20026;-63
2020/12/22 00:40:29;;;;;;;20.33;15.45;;;10.30;99.90;;;;;;4987685;28;20026;-63
2020/12/22 00:42:55;;;;;;;20.52;14.88;;;10.30;99.90;;;;;;4988738;28;20117;-64
2020/12/22 00:45:22;;;;;;;22.73;16.55;;;10.40;99.90;;;;;;4989125;28;20098;-63
2020/12/22 00:47:47;;;;;;;31.45;17.67;;;10.40;99.90;;;;;;4988521;28;20042;-60
2020/12/22 00:50:13;;;;;;;21.42;16.25;;;10.40;99.90;;;;;;4988931;28;20057;-63
2020/12/22 00:52:39;;;;;;;23.50;16.60;;;10.40;99.90;;;;;;4989775;28;20030;-63
2020/12/22 00:55:06;;;;;;;24.23;17.27;;;10.50;99.90;;;;;;4989236;28;20030;-63
2020/12/22 00:57:32;;;;;;;22.63;17.33;;;10.50;99.90;;;;;;4988439;28;20494;-63
2020/12/22 00:59:58;;;;;;;23.02;17.73;;;10.50;99.90;;;;;;4987947;28;20505;-63
2020/12/22 01:02:24;;;;;;;23.17;17.38;;;10.60;99.90;;;;;;4988162;28;20026;-63
2020/12/22 01:04:50;;;;;;;21.45;15.88;;;10.60;99.90;;;;;;4988333;28;20023;-64
2020/12/22 01:07:19;;;;;;;23.83;17.20;;;10.60;99.90;;;;;;5003166;23;20046;-59
2020/12/22 01:09:46;;;;;;;21.98;16.35;;;10.60;99.90;;;;;;4972446;28;20089;-57
2020/12/22 01:12:12;;;;;;;23.83;16.20;;;10.70;99.90;;;;;;4992416;28;20592;-59
2020/12/22 01:14:38;;;;;;;22.33;16.15;;;10.70;99.90;;;;;;4992917;28;20026;-57
2020/12/22 01:17:04;;;;;;;23.40;17.05;;;10.70;99.90;;;;;;4992721;28;20026;-61
2020/12/22 01:19:30;;;;;;;25.23;17.73;;;10.70;99.90;;;;;;4974575;28;20037;-61
2020/12/22 01:21:56;;;;;;;23.20;18.58;;;10.80;99.90;;;;;;4992870;28;20038;-61
2020/12/22 01:24:22;;;;;;;25.50;19.27;;;10.80;99.90;;;;;;4975083;28;20061;-62
2020/12/22 01:26:49;;;;;;;23.67;16.13;;;10.80;99.90;;;;;;4974424;28;20471;-60
2020/12/22 01:29:15;;;;;;;24.08;18.70;;;10.90;99.90;;;;;;4991945;28;20161;-61
2020/12/22 01:31:41;;;;;;;24.23;17.70;;;10.90;99.90;;;;;;4992634;28;20073;-59
2020/12/22 01:34:07;;;;;;;23.10;17.65;;;10.90;99.90;;;;;;4992993;28;20030;-61
2020/12/22 01:36:33;;;;;;;23.52;18.42;;;10.90;99.90;;;;;;4992587;28;20045;-59
2020/12/22 01:38:59;;;;;;;23.88;17.50;;;10.90;99.90;;;;;;4992160;28;20398;-61
2020/12/22 01:41:24;;;;;;;22.85;17.02;;;10.90;99.90;;;;;;4992654;28;20022;-60
2020/12/22 01:44:12;;;;;;;25.63;18.13;;;11.00;99.90;;;;;;4975209;28;20033;-60
2020/12/22 01:46:46;;;;;;;24.58;18.25;;;11.00;99.90;;;;;;4975245;28;20030;-60
2020/12/22 01:49:23;;;;;;;25.23;17.20;;;11.10;99.90;;;;;;4974130;28;20508;-58
2020/12/22 01:51:51;;;;;;;24.30;18.63;;;11.10;99.90;;;;;;4974810;28;20548;-59
2020/12/22 01:54:17;;;;;;;23.77;17.45;;;11.10;99.90;;;;;;4975090;28;20348;-60
2020/12/22 01:56:44;;;;;;;25.35;17.23;;;11.10;99.90;;;;;;4992305;28;20035;-60
2020/12/22 01:59:10;;;;;;;24.75;17.10;;;11.20;99.90;;;;;;4991642;28;20026;-60
2020/12/22 02:01:36;;;;;;;22.20;16.20;;;11.20;99.90;;;;;;4974760;28;20021;-61
2020/12/22 02:04:04;;;;;;;25.08;16.38;;;11.20;99.90;;;;;;4992290;28;20097;-57
2020/12/22 02:06:31;;;;;;;22.20;15.95;;;11.20;99.90;;;;;;4975363;28;20394;-59
2020/12/22 02:08:58;;;;;;;25.50;16.70;;;11.20;99.90;;;;;;4974399;28;20401;-58
2020/12/22 02:11:25;;;;;;;22.00;16.17;;;11.30;99.90;;;;;;4976019;28;20038;-57
2020/12/22 02:13:52;;;;;;;22.83;15.55;;;11.30;99.90;;;;;;4992606;28;20038;-60
2020/12/22 02:16:18;;;;;;;20.55;15.18;;;11.30;99.90;;;;;;4992247;28;20034;-60
2020/12/22 02:18:44;;;;;;;22.10;15.43;;;11.30;99.90;;;;;;4991391;28;20027;-55
2020/12/22 02:21:10;;;;;;;22.02;16.15;;;11.30;99.90;;;;;;4992214;28;20076;-59
2020/12/22 02:23:35;;;;;;;22.70;15.93;;;11.40;99.90;;;;;;4974731;28;20054;-61
2020/12/22 02:26:01;;;;;;;22.17;15.43;;;11.40;99.90;;;;;;4992214;28;20393;-57
2020/12/22 02:28:27;;;;;;;21.52;14.93;;;11.40;99.90;;;;;;4991325;28;20057;-60
2020/12/22 02:30:53;;;;;;;21.80;15.32;;;11.40;99.90;;;;;;4991952;28;20084;-61
2020/12/22 02:33:19;;;;;;;22.35;16.85;;;11.50;99.90;;;;;;4974555;28;20046;-59
2020/12/22 02:35:45;;;;;;;21.17;14.75;;;11.50;99.90;;;;;;4991944;28;20502;-57
2020/12/22 02:38:11;;;;;;;23.75;15.90;;;11.60;99.90;;;;;;4994150;28;20102;-59
2020/12/22 02:40:36;;;;;;;25.42;17.70;;;11.50;99.90;;;;;;4995130;28;20022;-58
2020/12/22 02:43:10;;;;;;;22.13;16.00;;;11.60;99.90;;;;;;4995574;28;20129;-59
2020/12/22 02:45:37;;;;;;;23.52;16.23;;;11.60;99.90;;;;;;4978131;28;20029;-56
2020/12/22 02:48:02;;;;;;;23.45;15.93;;;11.60;99.90;;;;;;4977756;28;20112;-59
2020/12/22 02:50:28;;;;;;;23.45;16.27;;;11.60;99.90;;;;;;4995331;28;20061;-61
2020/12/22 02:52:54;;;;;;;23.27;15.15;;;11.70;99.90;;;;;;4995561;28;20432;-60
2020/12/22 02:55:20;;;;;;;23.70;16.50;;;11.80;99.90;;;;;;4995260;28;20128;-59
2020/12/22 02:57:46;;;;;;;23.75;17.73;;;11.70;99.90;;;;;;4977711;28;20023;-57
2020/12/22 03:00:12;;;;;;;24.77;18.15;;;11.80;99.90;;;;;;4994712;28;20567;-60
2020/12/22 03:02:37;;;;;;;22.98;17.48;;;11.80;99.90;;;;;;4978011;28;20034;-60
2020/12/22 03:05:03;;;;;;;23.13;18.10;;;11.80;99.90;;;;;;4995540;28;20030;-60
2020/12/22 03:07:29;;;;;;;25.02;18.33;;;11.90;99.90;;;;;;4994801;28;20038;-60
2020/12/22 03:09:55;;;;;;;22.92;15.98;;;11.90;99.90;;;;;;4994354;28;20451;-56
2020/12/22 03:12:21;;;;;;;19.77;14.05;;;11.90;99.90;;;;;;4993862;28;20022;-60
2020/12/22 03:14:47;;;;;;;22.27;16.58;;;12.00;99.90;;;;;;4994037;28;20022;-55
2020/12/22 03:17:13;;;;;;;21.42;16.25;;;12.00;99.90;;;;;;4994838;28;20057;-60
2020/12/22 03:19:40;;;;;;;21.65;15.82;;;12.00;99.90;;;;;;4994277;28;20033;-59
2020/12/22 03:22:06;;;;;;;22.00;15.40;;;12.10;99.90;;;;;;4977344;28;20050;-59
2020/12/22 03:24:31;;;;;;;22.83;16.80;;;12.10;99.90;;;;;;4995409;28;20054;-58
2020/12/22 03:26:57;;;;;;;21.80;14.70;;;12.20;99.90;;;;;;4977756;28;20030;-60
2020/12/22 03:29:23;;;;;;;21.35;14.63;;;12.20;99.90;;;;;;4994006;28;20454;-58
2020/12/22 03:31:48;;;;;;;20.33;13.70;;;12.20;99.90;;;;;;4977255;28;20027;-57
2020/12/22 03:34:14;;;;;;;21.25;15.05;;;12.30;99.90;;;;;;4994523;28;20026;-56
2020/12/22 03:36:41;;;;;;;20.23;15.23;;;12.30;99.90;;;;;;4994407;28;20544;-59
2020/12/22 03:39:06;;;;;;;22.33;16.15;;;12.40;99.90;;;;;;4976287;28;20027;-60
2020/12/22 03:41:32;;;;;;;20.90;14.82;;;12.40;99.90;;;;;;4994450;28;20034;-59
2020/12/22 03:43:58;;;;;;;22.80;16.63;;;12.40;99.90;;;;;;4994098;28;20030;-58
2020/12/22 03:46:26;;;;;;;21.95;15.52;;;12.40;99.90;;;;;;4994568;28;20033;-58
2020/12/22 03:48:52;;;;;;;22.20;13.90;;;12.40;99.90;;;;;;4992707;28;20401;-60
2020/12/22 03:51:17;;;;;;;23.85;15.77;;;12.50;99.90;;;;;;4994427;28;20030;-61
2020/12/22 03:53:43;;;;;;;21.77;15.23;;;12.50;99.90;;;;;;4976800;28;20523;-59
2020/12/22 03:56:09;;;;;;;23.13;13.73;;;12.50;99.90;;;;;;4994278;28;20035;-53
2020/12/22 03:58:34;;;;;;;19.33;13.40;;;12.50;99.90;;;;;;4975685;28;20026;-58
2020/12/22 04:01:00;;;;;;;19.63;14.02;;;12.60;99.90;;;;;;4994312;28;20022;-61
2020/12/22 04:03:27;;;;;;;17.55;12.73;;;12.60;99.90;;;;;;4993764;28;20077;-57
2020/12/22 04:05:53;;;;;;;18.38;12.68;;;12.60;99.90;;;;;;4994039;28;20030;-58
2020/12/22 04:08:19;;;;;;;17.80;12.50;;;12.60;99.90;;;;;;4993253;28;20067;-56
2020/12/22 04:10:45;;;;;;;19.90;13.38;;;12.70;99.90;;;;;;4976394;28;20026;-60
2020/12/22 04:13:10;;;;;;;17.35;12.13;;;12.70;99.90;;;;;;4993706;28;20040;-58
2020/12/22 04:15:36;;;;;;;15.93;10.75;;;12.60;99.90;;;;;;4976458;28;20041;-60
2020/12/22 04:18:02;;;;;;;16.63;10.43;;;12.70;99.90;;;;;;4993249;28;20018;-58
2020/12/22 04:20:28;;;;;;;15.95;9.68;;;12.70;99.90;;;;;;4993724;28;20081;-58
2020/12/22 04:22:54;;;;;;;17.23;9.93;;;12.70;99.90;;;;;;4992404;28;20019;-56
2020/12/22 04:25:20;;;;;;;15.18;9.63;;;12.70;99.90;;;;;;4993563;28;20026;-60
2020/12/22 04:27:46;;;;;;;18.55;9.50;;;12.80;99.90;;;;;;4991094;28;20041;-60
2020/12/22 04:30:12;;;;;;;15.90;8.68;;;12.80;99.90;;;;;;4992991;28;20026;-59
2020/12/22 04:32:38;;;;;;;15.95;8.25;;;12.80;99.90;;;;;;4976242;28;20421;-59
2020/12/22 04:35:04;;;;;;;15.23;8.73;;;12.90;99.90;;;;;;4992356;28;20425;-60
2020/12/22 04:37:30;;;;;;;15.45;8.05;;;12.90;99.90;;;;;;4993872;28;20041;-60
2020/12/22 04:39:56;;;;;;;14.55;7.70;;;13.00;99.90;;;;;;4993617;28;20025;-57
2020/12/22 04:42:22;;;;;;;13.48;7.35;;;13.00;99.90;;;;;;4993503;28;20026;-60
2020/12/22 04:44:51;;;;;;;12.80;6.57;;;13.00;99.90;;;;;;4993659;28;20461;-60
2020/12/22 04:47:17;;;;;;;14.77;6.95;;;13.10;99.90;;;;;;4993240;28;20534;-58
2020/12/22 04:49:50;;;;;;;14.48;6.78;;;13.10;99.90;;;;;;4992750;28;20453;-54
2020/12/22 04:52:21;;;;;;;13.20;6.20;;;13.10;99.90;;;;;;4992945;28;20097;-59
2020/12/22 04:54:46;;;;;;;13.43;6.40;;;13.00;99.90;;;;;;4975541;28;20022;-58
2020/12/22 04:57:14;;;;;;;14.52;6.75;;;13.10;99.90;;;;;;4991414;28;20049;-57
2020/12/22 04:59:43;;;;;;;13.43;7.03;;;13.10;99.90;;;;;;4992363;28;20089;-59
2020/12/22 05:02:10;;;;;;;14.98;7.63;;;13.10;99.90;;;;;;4992831;28;20552;-58
2020/12/22 05:04:39;;;;;;;14.98;7.53;;;13.10;99.90;;;;;;4975412;28;20033;-60
2020/12/22 05:07:05;;;;;;;14.90;7.43;;;13.20;99.90;;;;;;4992596;28;20030;-57
2020/12/22 05:09:31;;;;;;;13.57;6.68;;;13.20;99.90;;;;;;4992122;28;20096;-57
2020/12/22 05:11:57;;;;;;;15.05;7.00;;;13.10;99.90;;;;;;4992539;28;20026;-59
2020/12/22 05:14:27;;;;;;;14.43;7.55;;;13.20;99.90;;;;;;4992734;28;20037;-57
2020/12/22 05:16:55;;;;;;;14.43;7.00;;;13.20;99.90;;;;;;4992896;28;20080;-59
2020/12/22 05:19:21;;;;;;;13.77;6.90;;;13.20;99.90;;;;;;4991977;28;20048;-59
2020/12/22 05:21:50;;;;;;;13.57;6.82;;;13.20;99.90;;;;;;4992641;28;20037;-59
2020/12/22 05:24:18;;;;;;;14.75;7.25;;;13.20;99.90;;;;;;4992448;28;20367;-60
2020/12/22 05:26:45;;;;;;;14.90;8.00;;;13.10;99.90;;;;;;4992841;28;20038;-60
2020/12/22 05:29:18;;;;;;;17.45;15.13;;;13.00;99.90;;;;;;4990503;28;20482;-60
2020/12/22 05:31:53;;;;;;;19.60;14.05;;;12.70;99.90;;;;;;4975065;28;20034;-60
2020/12/22 05:34:20;;;;;;;19.65;14.98;;;12.60;99.90;;;;;;4992476;28;20031;-59
2020/12/22 05:36:47;;;;;;;17.35;14.68;;;12.60;99.90;;;;;;4991990;28;20141;-60
2020/12/22 05:39:15;;;;;;;17.98;13.27;;;12.50;99.90;;;;;;4991598;28;20278;-60
2020/12/22 05:41:41;;;;;;;19.13;14.13;;;12.50;99.90;;;;;;4974741;28;20023;-60
2020/12/22 05:44:08;;;;;;;19.52;14.07;;;12.50;99.90;;;;;;4991903;28;20513;-61
2020/12/22 05:46:36;;;;;;;17.08;13.10;;;12.50;99.90;;;;;;4992247;28;20478;-59
2020/12/22 05:49:05;;;;;;;17.08;12.48;;;12.50;99.90;;;;;;4991851;28;20097;-59
2020/12/22 05:51:32;;;;;;;17.45;13.15;;;12.50;99.90;;;;;;4992436;28;20030;-59
2020/12/22 05:54:06;;;;;;;16.83;12.50;;;12.50;99.90;;;;;;4975986;28;20065;-61
2020/12/22 05:56:35;;;;;;;17.08;12.40;;;12.50;99.90;;;;;;4992329;28;20542;-61
2020/12/22 05:59:01;;;;;;;15.80;11.32;;;12.50;99.90;;;;;;4991525;28;20080;-60
2020/12/22 06:01:30;;;;;;;17.95;13.57;;;12.60;99.90;;;;;;4992225;28;20113;-60
2020/12/22 06:03:57;;;;;;;19.63;14.45;;;12.50;99.90;;;;;;4974587;28;20067;-60
2020/12/22 06:06:26;;;;;;;17.83;14.52;;;12.50;99.90;;;;;;4992013;28;20030;-59
2020/12/22 06:08:52;;;;;;;17.40;13.95;;;12.60;99.90;;;;;;4973675;28;20034;-58
2020/12/22 06:11:18;;;;;;;17.80;13.40;;;12.60;99.90;;;;;;4991619;28;20030;-60
2020/12/22 06:13:47;;;;;;;16.65;13.35;;;12.50;99.90;;;;;;4977600;28;20026;-58
2020/12/22 06:16:21;;;;;;;;;;;12.60;99.90;;;;;;4995944;28;20045;-57
2020/12/22 06:18:49;;;;;;;17.75;13.43;;;12.60;99.90;;;;;;4977474;28;20052;-58
2020/12/22 06:21:21;;;;;;;16.15;12.57;;;12.60;99.90;;;;;;4995448;28;20042;-57
2020/12/22 06:23:48;;;;;;;18.23;12.73;;;12.60;99.90;;;;;;4995642;28;20022;-57
2020/12/22 06:26:17;;;;;;;19.25;14.05;;;12.60;99.90;;;;;;4977977;28;20137;-60
2020/12/22 06:28:43;;;;;;;16.85;14.80;;;12.60;99.90;;;;;;4994711;28;20104;-60
2020/12/22 06:31:23;;;;;;;17.70;15.02;;;12.60;99.90;;;;;;4978328;28;20366;-60
2020/12/22 06:33:50;;;;;;;18.27;15.10;;;12.60;99.90;;;;;;4991340;28;20307;-60
2020/12/22 06:36:17;;;;;;;18.38;15.25;;;12.60;99.90;;;;;;4970181;28;20037;-59
2020/12/22 06:38:51;;;;;;;18.08;14.48;;;12.60;99.90;;;;;;4978616;28;20038;-60
2020/12/22 06:41:39;;;;;;;16.27;13.88;;;12.60;99.90;;;;;;4976613;28;20022;-59
2020/12/22 06:44:16;;;;;;;18.30;13.95;;;12.60;99.90;;;;;;4995092;28;20559;-60
2020/12/22 06:46:48;;;;;;;16.35;13.02;;;12.60;99.90;;;;;;4995308;28;20069;-61
2020/12/22 06:49:13;;;;;;;17.95;13.82;;;12.60;99.90;;;;;;4988680;28;20038;-61
2020/12/22 06:51:42;;;;;;;16.65;12.68;;;12.60;99.90;;;;;;4979376;28;20035;-59
2020/12/22 06:54:13;;;;;;;17.58;13.75;;;12.60;99.90;;;;;;4980705;28;20029;-59
2020/12/22 06:56:45;;;;;;;16.85;12.48;;;12.60;99.90;;;;;;4994896;28;20490;-58
2020/12/22 06:59:12;;;;;;;17.88;12.93;;;12.60;99.90;;;;;;4974931;28;20034;-52
2020/12/22 07:01:47;;;;;;;16.50;12.43;;;12.60;99.90;;;;;;4977904;28;20102;-58
2020/12/22 07:04:20;;;;;;;19.90;13.95;;;12.60;99.90;;;;;;4978248;28;20022;-59
2020/12/22 07:06:58;;;;;;;17.63;13.15;;;12.60;99.90;;;;;;4997858;28;20460;-54
2020/12/22 07:09:29;;;;;;;17.27;13.48;;;12.60;99.90;;;;;;4994910;23;20497;-56
2020/12/22 07:12:09;;;;;;;18.20;14.02;;;12.60;99.90;;;;;;4994819;28;20375;-59
2020/12/22 07:14:47;;;;;;;18.40;14.23;;;12.60;99.90;;;;;;4977471;28;20034;-53
2020/12/22 07:17:14;;;;;;;21.63;17.77;;;12.60;99.90;;;;;;4994684;28;20033;-59
2020/12/22 07:19:44;;;;;;;19.23;14.90;;;12.40;99.90;;;;;;4993927;28;20490;-59
2020/12/22 07:22:10;;;;;;;19.73;15.00;;;12.40;99.90;;;;;;4994967;28;20031;-60
2020/12/22 07:24:37;;;;;;;20.02;17.20;;;12.40;99.90;;;;;;4976955;28;20022;-61
2020/12/22 07:27:04;;;;;;;18.88;15.27;;;12.40;99.90;;;;;;4994540;28;20058;-61
2020/12/22 07:29:29;;;;;;;19.05;14.63;;;12.40;99.90;;;;;;4993888;28;20033;-61
2020/12/22 07:31:55;;;;;;;18.15;13.82;;;12.40;99.90;;;;;;4976892;28;20022;-61
2020/12/22 07:34:22;;;;;;;18.42;13.02;;;12.40;99.90;;;;;;4976975;28;20052;-59
2020/12/22 07:36:48;;;;;;;19.95;14.85;;;12.40;99.90;;;;;;4994540;28;20076;-58
2020/12/22 07:39:22;;;;;;;18.63;15.00;;;12.40;99.90;;;;;;4993735;28;20371;-61
2020/12/22 07:41:49;;;;;;;18.33;15.32;;;12.40;99.90;;;;;;4976627;28;20026;-59
2020/12/22 07:44:17;;;;;;;18.23;14.75;;;12.40;99.90;;;;;;4994347;28;20045;-60
2020/12/22 07:46:44;;;;;;;20.87;14.63;;;12.40;99.90;;;;;;4994320;28;20030;-61
2020/12/22 07:49:11;;;;;;;18.65;15.50;;;;;;;;;;4975959;28;20281;-59
2020/12/22 07:51:44;;;;;;;19.65;15.27;;;12.40;99.90;;;;;;4994067;28;20027;-61
2020/12/22 07:54:10;;;;;;;19.70;16.48;;;12.40;99.90;;;;;;4993753;28;20030;-60
2020/12/22 07:56:38;;;;;;;21.48;17.10;;;12.40;99.90;;;;;;4993631;28;20138;-61
2020/12/22 07:59:06;;;;;;;20.42;16.25;;;12.40;99.90;;;;;;4993066;28;20046;-59
2020/12/22 08:01:41;;;;;;;18.30;15.02;;;12.40;99.90;;;;;;4976197;28;20026;-60
2020/12/22 08:04:11;;;;;;;20.20;15.93;;;12.40;99.90;;;;;;4993850;28;20041;-60
2020/12/22 08:06:38;;;;;;;20.42;16.20;;;12.40;99.90;;;;;;4975906;28;20053;-58
2020/12/22 08:09:04;;;;;;;22.13;15.80;;;12.40;99.90;;;;;;4975081;28;20096;-61
2020/12/22 08:11:30;;;;;;;19.80;15.23;;;12.40;99.90;;;;;;4993651;28;20034;-61
2020/12/22 08:13:57;;;;;;;21.63;14.48;;;12.40;99.90;;;;;;4993585;28;20037;-61
2020/12/22 08:16:24;;;;;;;21.15;15.18;;;12.40;99.90;;;;;;4993458;28;20026;-61
2020/12/22 08:18:51;;;;;;;19.00;14.90;;;12.40;99.90;;;;;;4992794;28;20114;-61
2020/12/22 08:21:19;;;;;;;32.50;17.75;;;12.40;99.90;;;;;;4975986;28;20113;-61
2020/12/22 08:23:46;;;;;;;19.75;15.45;;;12.40;99.90;;;;;;4993456;28;20027;-61
2020/12/22 08:26:12;;;;;;;19.52;14.77;;;12.40;99.90;;;;;;4975650;28;20042;-61
2020/12/22 08:28:38;;;;;;;22.00;13.55;;;12.40;99.90;;;;;;4992471;28;20030;-60
2020/12/22 08:31:10;;;;;;;18.33;13.52;;;12.30;99.90;;;;;;4976168;28;20034;-62
2020/12/22 08:33:39;;;;;;;17.17;12.68;;;12.30;99.90;;;;;;4993490;28;20041;-61
2020/12/22 08:36:10;;;;;;;17.90;12.18;;;12.30;99.90;;;;;;4992417;28;20030;-61
2020/12/22 08:38:36;;;;;;;16.02;10.48;;;12.30;99.90;;;;;;4974824;28;20030;-61
2020/12/22 08:41:17;;;;;;;17.05;10.20;;;12.30;99.90;;;;;;4993667;28;20065;-61
2020/12/22 08:43:48;;;;;;;16.92;9.82;;;12.30;99.90;;;;;;4976296;28;20023;-62
2020/12/22 08:46:14;;;;;;;16.02;9.02;;;12.30;99.90;;;;;;4993188;28;20022;-60
2020/12/22 08:48:40;;;;;;;18.45;9.73;;;12.30;99.90;;;;;;4992664;28;20023;-61
2020/12/22 08:51:06;;;;;;;16.00;9.35;;;12.40;99.90;;;;;;4976356;28;20156;-62
2020/12/22 08:53:32;;;;;;;16.63;10.18;;;12.50;99.90;;;;;;4975502;28;20034;-61
2020/12/22 08:56:10;;;;;;;17.92;11.15;;;12.50;99.90;;;;;;4975172;28;20504;-60
2020/12/22 08:58:53;;;;;;;18.80;10.18;;;12.50;99.90;;;;;;4992000;28;20136;-61
2020/12/22 09:01:24;;;;;;;16.67;9.68;;;12.50;99.90;;;;;;4993045;28;20031;-61
2020/12/22 09:03:52;;;;;;;15.02;8.85;;;12.60;99.90;;;;;;4975161;28;20445;-60
2020/12/22 09:06:18;;;;;;;17.90;10.13;;;12.50;99.90;;;;;;4991353;28;20430;-60
2020/12/22 09:08:46;;;;;;;15.80;9.70;;;12.60;99.90;;;;;;4972139;28;20042;-60
2020/12/22 09:11:21;;;;;;;16.75;8.60;;;12.50;99.90;;;;;;4974760;28;20082;-61
2020/12/22 09:14:07;;;;;;;15.95;8.60;;;12.50;99.90;;;;;;4991168;28;20572;-61
2020/12/22 09:16:45;;;;;;;15.43;8.30;;;12.50;99.90;;;;;;4992295;28;20034;-60
2020/12/22 09:19:11;;;;;;;16.45;8.63;;;12.40;99.90;;;;;;4991589;28;20022;-60
2020/12/22 09:21:36;;;;;;;15.77;8.32;;;12.40;99.90;;;;;;4975306;28;20386;-59
2020/12/22 09:24:02;;;;;;;18.50;8.20;;;12.40;99.90;;;;;;4991816;28;20029;-61
2020/12/22 09:26:28;;;;;;;17.67;8.65;;;12.40;99.90;;;;;;4992695;28;20030;-61
2020/12/22 09:28:53;;;;;;;15.88;7.80;;;12.40;99.90;;;;;;4991453;28;20038;-61
2020/12/22 09:31:26;;;;;;;15.52;8.80;;;12.40;99.90;;;;;;4974709;28;20037;-60
2020/12/22 09:33:52;;;;;;;15.73;7.60;;;12.40;99.90;;;;;;4991517;28;20053;-62
2020/12/22 09:36:17;;;;;;;16.58;7.40;;;12.50;99.90;;;;;;4992048;28;20478;-62
2020/12/22 09:38:43;;;;;;;15.30;7.53;;;12.50;99.90;;;;;;4974501;28;20412;-61
2020/12/22 09:41:09;;;;;;;14.52;7.70;;;12.50;99.90;;;;;;4992345;28;20056;-59
2020/12/22 09:43:35;;;;;;;16.38;7.20;;;12.50;99.90;;;;;;4992039;28;20037;-61
2020/12/22 09:46:00;;;;;;;15.25;7.20;;;12.40;99.90;;;;;;4974954;28;20580;-61
2020/12/22 09:48:26;;;;;;;14.13;6.55;;;12.40;99.90;;;;;;4994763;28;20109;-59
2020/12/22 09:50:52;;;;;;;14.55;7.03;;;12.40;99.90;;;;;;4996154;28;20026;-55
2020/12/22 09:53:19;;;;;;;14.68;7.35;;;12.40;99.90;;;;;;4996117;28;20089;-52
2020/12/22 09:55:44;;;;;;;14.75;6.65;;;12.50;99.90;;;;;;4996014;28;20118;-53
2020/12/22 09:58:10;;;;;;;14.13;6.53;;;12.60;99.90;;;;;;4978129;28;20505;-53
2020/12/22 10:00:36;;;;;;;15.10;7.05;;;12.70;99.90;;;;;;4995484;28;20058;-55
2020/12/22 10:03:01;;;;;;;14.32;6.65;;;12.70;99.90;;;;;;4978476;28;20026;-56
2020/12/22 10:05:27;;;;;;;13.65;7.03;;;12.70;99.90;;;;;;4995242;28;20117;-54
2020/12/22 10:07:52;;;;;;;13.38;6.00;;;12.80;99.90;;;;;;4995638;28;20034;-53
2020/12/22 10:10:18;;;;;;;13.98;6.00;;;12.70;99.90;;;;;;4978327;28;20031;-54
2020/12/22 10:12:44;;;;;;;11.55;5.88;;;12.70;99.90;;;;;;4995825;28;20030;-54
2020/12/22 10:15:09;;;;;;;13.27;6.03;;;12.70;99.90;;;;;;4995541;28;20416;-54
2020/12/22 10:17:35;;;;;;;12.88;6.15;;;12.70;99.90;;;;;;4995592;28;20101;-51
2020/12/22 10:20:00;;;;;;;16.15;6.63;;;12.70;99.90;;;;;;4977658;28;20061;-57
2020/12/22 10:22:30;;;;;;;14.02;5.82;;;12.80;99.90;;;;;;4995431;28;20470;-52
2020/12/22 10:24:55;;;;;;;12.10;5.47;;;12.90;99.90;;;;;;4995602;28;20097;-56
2020/12/22 10:27:21;;;;;;;13.35;5.72;;;12.90;99.90;;;;;;4994963;28;20122;-52
2020/12/22 10:29:46;;;;;;;13.20;6.18;;;13.00;99.90;;;;;;4995179;28;20482;-55
2020/12/22 10:32:12;;;;;;;12.32;6.20;;;13.00;99.90;;;;;;4977585;28;20034;-57
2020/12/22 10:34:37;;;;;;;12.90;5.47;;;13.10;99.90;;;;;;4995298;28;20026;-59
2020/12/22 10:37:03;;;;;;;13.10;5.97;;;13.10;99.90;;;;;;4977541;28;20065;-57
2020/12/22 10:39:29;;;;;;;13.05;6.07;;;13.20;99.90;;;;;;4995002;28;20029;-60
2020/12/22 10:41:55;;;;;;;13.85;5.85;;;13.20;99.90;;;;;;4977579;28;20022;-54
2020/12/22 10:44:21;;;;;;;13.15;6.13;;;13.30;99.90;;;;;;4994944;28;20399;-57
2020/12/22 10:46:47;;;;;;;14.25;6.40;;;13.20;99.90;;;;;;4995179;28;20029;-61
2020/12/22 10:49:13;;;;;;;14.60;6.50;;;13.20;99.90;;;;;;4994783;28;20112;-62
2020/12/22 10:51:39;;;;;;;16.45;6.93;;;13.10;99.90;;;;;;4977674;28;20458;-62
2020/12/22 10:54:04;;;;;;;15.23;7.45;;;13.10;99.90;;;;;;4977361;28;20077;-60
2020/12/22 10:56:30;;;;;;;17.27;7.45;;;13.00;99.90;;;;;;4992502;28;20490;-61
2020/12/22 10:58:58;;;;;;;14.57;6.93;;;12.90;99.90;;;;;;4991977;28;20054;-63
2020/12/22 11:01:24;;;;;;;15.63;7.13;;;12.80;99.90;;;;;;4976480;28;20022;-61
2020/12/22 11:03:49;;;;;;;15.38;6.90;;;12.80;99.90;;;;;;4994954;28;20110;-62
2020/12/22 11:08:48;;;;;;;17.58;8.10;;;12.70;99.90;;;;;;4994783;28;20038;-63
2020/12/22 11:11:14;;;;;;;15.85;7.90;;;12.70;99.90;;;;;;4994206;28;20032;-63
2020/12/22 11:13:40;;;;;;;17.90;8.32;;;12.60;99.90;;;;;;4994487;28;20038;-62
2020/12/22 11:16:10;;;;;;;17.55;8.68;;;12.60;99.90;;;;;;4976869;28;20026;-63
2020/12/22 11:18:37;;;;;;;15.98;8.40;;;12.60;99.90;;;;;;4994627;28;20030;-61
2020/12/22 11:21:07;;;;;;;16.17;8.10;;;12.60;99.90;;;;;;4977179;28;20062;-57
2020/12/22 11:23:33;;;;;;;16.95;8.57;;;12.60;99.90;;;;;;4994482;28;20018;-61
2020/12/22 11:25:59;;;;;;;17.63;7.63;;;12.60;99.90;;;;;;4976445;28;20034;-60
2020/12/22 11:28:24;;;;;;;16.35;8.20;;;12.60;99.90;;;;;;4994284;28;20030;-62
2020/12/22 11:30:50;;;;;;;19.65;8.85;;;12.60;99.90;;;;;;4993812;28;20065;-63
2020/12/22 11:33:16;;;;;;;16.92;7.28;;;12.60;99.90;;;;;;4993943;28;20053;-61
2020/12/22 11:35:41;;;;;;;15.57;7.13;;;12.70;99.90;;;;;;4993855;28;20032;-61
2020/12/22 11:38:07;;;;;;;16.67;7.63;;;12.70;99.90;;;;;;4976103;28;20029;-60
2020/12/22 11:40:33;;;;;;;15.65;6.45;;;12.80;99.90;;;;;;4993608;28;20146;-62
2020/12/22 11:42:59;;;;;;;14.82;6.35;;;12.80;99.90;;;;;;4975653;28;20121;-59
2020/12/22 11:45:24;;;;;;;16.73;6.72;;;12.80;99.90;;;;;;4992983;28;20105;-59
2020/12/22 11:47:50;;;;;;;14.52;6.10;;;12.90;99.90;;;;;;4975206;28;20029;-63
2020/12/22 11:50:16;;;;;;;13.43;5.93;;;12.90;99.90;;;;;;4975558;28;20030;-63
2020/12/22 11:52:41;;;;;;;15.07;6.13;;;12.90;99.90;;;;;;4993339;28;20469;-63
2020/12/22 11:55:07;;;;;;;14.60;5.65;;;12.90;99.90;;;;;;4975889;28;20092;-62
2020/12/22 11:57:33;;;;;;;15.10;6.90;;;13.00;99.90;;;;;;4992946;28;20500;-61
2020/12/22 11:59:58;;;;;;;15.13;6.30;;;13.00;99.90;;;;;;4986709;28;20027;-61
2020/12/22 12:02:24;;;;;;;16.40;6.18;;;13.00;99.90;;;;;;4993349;28;20022;-59
2020/12/22 12:04:49;;;;;;;13.90;5.78;;;13.00;99.90;;;;;;4993235;28;20029;-60
2020/12/22 12:07:15;;;;;;;14.35;6.05;;;13.00;99.90;;;;;;4975886;28;20048;-60
2020/12/22 12:09:41;;;;;;;15.13;6.32;;;12.90;99.90;;;;;;4975007;28;20038;-61
2020/12/22 12:12:06;;;;;;;15.65;6.60;;;12.90;99.90;;;;;;4975867;28;20485;-59
2020/12/22 12:14:32;;;;;;;15.73;6.32;;;13.00;99.90;;;;;;4993451;28;20026;-58
2020/12/22 12:16:58;;;;;;;17.98;6.72;;;12.90;99.90;;;;;;4993658;28;20351;-61
2020/12/22 12:19:26;;;;;;;14.80;6.40;;;12.90;99.90;;;;;;4992954;28;20030;-59
2020/12/22 12:21:55;;;;;;;15.65;6.78;;;12.80;99.90;;;;;;4991938;28;20379;-62
2020/12/22 12:24:21;;;;;;;15.30;6.10;;;12.80;99.90;;;;;;4993239;28;20245;-58
2020/12/22 12:26:46;;;;;;;13.63;6.10;;;12.90;99.90;;;;;;4993070;28;20026;-62
2020/12/22 12:29:12;;;;;;;16.95;6.80;;;12.80;99.90;;;;;;4993104;28;20038;-61
2020/12/22 12:31:37;;;;;;;15.27;6.43;;;12.70;99.90;;;;;;4993198;28;20026;-59
2020/12/22 12:34:03;;;;;;;14.68;5.50;;;12.70;99.90;;;;;;4993146;28;20378;-59